createdAt,value
2023-08-13T00:03:49.291Z,17.65
2023-08-13T00:07:51.480Z,17.92
2023-08-13T00:11:57.235Z,19.15
2023-08-13T00:15:59.786Z,18.80
2023-08-13T00:20:01.537Z,15.80
2023-08-13T00:24:03.902Z,17.08
2023-08-13T00:28:06.156Z,17.17
2023-08-13T00:32:07.964Z,15.93
2023-08-13T00:36:10.105Z,18.70
2023-08-13T00:40:12.881Z,22.05
2023-08-13T00:44:14.605Z,14.60
2023-08-13T00:48:17.534Z,17.42
2023-08-13T00:52:19.803Z,13.98
2023-08-13T00:56:23.609Z,17.13
2023-08-13T01:00:27.587Z,15.10
2023-08-13T01:04:29.942Z,15.88
2023-08-13T01:09:14.671Z,10.95
2023-08-13T01:13:29.613Z,14.07
2023-08-13T01:17:34.856Z,15.05
2023-08-13T01:21:36.595Z,12.35
2023-08-13T01:25:40.034Z,13.13
2023-08-13T01:29:48.309Z,11.63
2023-08-13T01:33:52.078Z,15.77
2023-08-13T01:37:55.826Z,11.82
2023-08-13T01:41:57.770Z,13.50
2023-08-13T01:46:01.724Z,14.98
2023-08-13T01:50:04.018Z,11.63
2023-08-13T01:54:06.505Z,12.52
2023-08-13T01:58:09.130Z,18.10
2023-08-13T02:02:11.688Z,21.92
2023-08-13T02:06:14.273Z,11.02
2023-08-13T02:10:16.557Z,13.27
2023-08-13T02:14:18.796Z,15.32
2023-08-13T02:18:20.952Z,12.18
2023-08-13T02:22:24.345Z,11.52
2023-08-13T02:26:26.377Z,12.40
2023-08-13T02:30:28.481Z,11.30
2023-08-13T02:34:34.588Z,12.93
2023-08-13T02:38:37.191Z,11.68
2023-08-13T02:42:39.176Z,18.58
2023-08-13T02:46:42.089Z,13.23
2023-08-13T02:50:44.189Z,12.32
2023-08-13T02:54:46.175Z,11.80
2023-08-13T02:58:48.428Z,10.52
2023-08-13T03:02:50.628Z,16.98
2023-08-13T03:06:52.749Z,15.02
2023-08-13T03:10:54.902Z,20.92
2023-08-13T03:14:57.267Z,15.32
2023-08-13T03:18:59.584Z,11.68
2023-08-13T03:23:01.976Z,13.02
2023-08-13T03:27:04.416Z,17.50
2023-08-13T03:31:08.219Z,15.07
2023-08-13T03:35:18.679Z,13.75
2023-08-13T03:39:22.577Z,14.10
2023-08-13T03:43:24.723Z,11.70
2023-08-13T03:47:26.875Z,12.27
2023-08-13T03:51:29.000Z,13.60
2023-08-13T03:55:32.720Z,16.95
2023-08-13T03:59:35.592Z,14.10
2023-08-13T04:03:39.035Z,15.32
2023-08-13T04:07:42.668Z,19.50
2023-08-13T04:11:45.350Z,16.88
2023-08-13T04:15:47.538Z,14.82
2023-08-13T04:19:51.260Z,14.57
2023-08-13T04:23:55.825Z,16.45
2023-08-13T04:27:58.372Z,12.85
2023-08-13T04:32:00.749Z,12.43
2023-08-13T04:36:02.874Z,17.95
2023-08-13T04:40:06.967Z,14.52
2023-08-13T04:44:09.152Z,14.07
2023-08-13T04:48:11.426Z,14.52
2023-08-13T04:52:15.088Z,13.77
2023-08-13T04:56:17.409Z,16.60
2023-08-13T05:00:19.897Z,19.60
2023-08-13T05:04:22.899Z,17.27
2023-08-13T05:08:25.241Z,14.35
2023-08-13T05:12:28.709Z,13.23
2023-08-13T05:16:32.391Z,16.25
2023-08-13T05:20:34.588Z,12.07
2023-08-13T05:24:37.071Z,15.27
2023-08-13T05:28:39.312Z,12.15
2023-08-13T05:32:42.024Z,14.52
2023-08-13T05:36:44.173Z,14.30
2023-08-13T05:40:46.236Z,15.73
2023-08-13T05:44:49.042Z,14.25
2023-08-13T05:48:52.522Z,11.40
2023-08-13T05:52:55.124Z,10.23
2023-08-13T05:56:57.261Z,14.02
2023-08-13T06:00:59.329Z,9.98
2023-08-13T06:05:01.375Z,10.57
2023-08-13T06:09:03.774Z,11.63
2023-08-13T06:13:06.041Z,15.70
2023-08-13T06:17:14.583Z,9.73
2023-08-13T06:21:17.280Z,12.25
2023-08-13T06:25:19.374Z,11.68
2023-08-13T06:29:21.354Z,11.38
2023-08-13T06:33:23.480Z,13.50
2023-08-13T06:37:25.549Z,18.85
2023-08-13T06:41:28.166Z,12.23
2023-08-13T06:45:33.917Z,14.30
2023-08-13T06:49:36.038Z,18.70
2023-08-13T06:53:38.027Z,13.98
2023-08-13T06:57:40.062Z,10.88
2023-08-13T07:01:42.207Z,13.38
2023-08-13T07:05:44.293Z,11.00
2023-08-13T07:09:46.335Z,17.45
2023-08-13T07:13:52.260Z,9.32
2023-08-13T07:17:54.470Z,10.52
2023-08-13T07:21:56.669Z,11.20
2023-08-13T07:25:59.042Z,7.15
2023-08-13T07:30:01.866Z,10.98
2023-08-13T07:34:04.361Z,11.30
2023-08-13T07:38:06.765Z,10.13
2023-08-13T07:42:10.051Z,9.38
2023-08-13T07:46:11.891Z,10.80
2023-08-13T07:50:14.378Z,12.45
2023-08-13T07:54:17.989Z,11.05
2023-08-13T07:58:21.636Z,10.75
2023-08-13T08:02:24.604Z,8.60
2023-08-13T08:06:28.966Z,7.68
2023-08-13T08:10:31.269Z,11.32
2023-08-13T08:14:33.301Z,10.43
2023-08-13T08:18:35.342Z,8.57
2023-08-13T08:22:37.402Z,6.07
2023-08-13T08:26:39.601Z,8.15
2023-08-13T08:30:41.621Z,11.15
2023-08-13T08:34:43.670Z,11.82
2023-08-13T08:38:45.642Z,8.15
2023-08-13T08:42:47.853Z,9.95
2023-08-13T08:46:51.329Z,9.00
2023-08-13T08:50:54.079Z,15.52
2023-08-13T08:54:56.806Z,7.50
2023-08-13T08:58:58.971Z,7.57
2023-08-13T09:03:02.674Z,7.47
2023-08-13T09:07:07.544Z,9.07
2023-08-13T09:11:10.497Z,9.63
2023-08-13T09:15:13.912Z,8.18
2023-08-13T09:19:17.198Z,6.20
2023-08-13T09:23:23.082Z,7.65
2023-08-13T09:27:25.631Z,9.32
2023-08-13T09:31:27.760Z,9.52
2023-08-13T09:35:29.951Z,6.57
2023-08-13T09:39:32.534Z,4.63
2023-08-13T09:43:36.039Z,6.78
2023-08-13T09:47:41.665Z,7.15
2023-08-13T09:51:45.802Z,8.25
2023-08-13T09:55:52.997Z,6.22
2023-08-13T09:59:56.078Z,10.25
2023-08-13T10:03:59.149Z,7.93
2023-08-13T10:08:01.293Z,9.55
2023-08-13T10:12:06.761Z,13.82
2023-08-13T10:16:09.834Z,6.85
2023-08-13T10:20:12.276Z,7.90
2023-08-13T10:24:14.519Z,11.60
2023-08-13T10:28:34.098Z,8.98
2023-08-13T10:32:55.403Z,14.38
2023-08-13T10:36:57.582Z,6.15
2023-08-13T10:41:03.440Z,7.43
2023-08-13T10:45:06.843Z,8.90
2023-08-13T10:49:08.928Z,7.15
2023-08-13T10:53:22.263Z,8.40
2023-08-13T10:57:29.393Z,7.45
2023-08-13T11:01:31.231Z,8.60
2023-08-13T11:05:33.643Z,4.90
2023-08-13T11:09:36.704Z,3.67
2023-08-13T11:13:38.866Z,3.63
2023-08-13T11:17:47.856Z,3.67
2023-08-13T11:21:52.302Z,4.00
2023-08-13T11:25:55.393Z,3.25
2023-08-13T11:29:58.972Z,3.35
2023-08-13T11:34:01.621Z,6.50
2023-08-13T11:38:03.955Z,7.30
2023-08-13T11:42:10.064Z,5.45
2023-08-13T11:46:12.320Z,3.88
2023-08-13T11:50:22.102Z,7.50
2023-08-13T11:54:24.041Z,6.93
2023-08-13T11:58:26.566Z,8.57
2023-08-13T12:02:28.370Z,8.95
2023-08-13T12:06:31.053Z,8.43
2023-08-13T12:10:34.437Z,5.47
2023-08-13T12:14:43.397Z,7.68
2023-08-13T12:18:45.746Z,8.00
2023-08-13T12:22:48.066Z,8.45
2023-08-13T12:26:50.061Z,4.53
2023-08-13T12:30:52.244Z,4.50
2023-08-13T12:34:54.357Z,5.43
2023-08-13T12:38:56.408Z,4.57
2023-08-13T12:42:58.364Z,3.25
2023-08-13T12:47:00.692Z,8.32
2023-08-13T12:51:06.569Z,4.97
2023-08-13T12:55:09.274Z,5.57
2023-08-13T12:59:11.481Z,6.47
2023-08-13T13:03:13.667Z,3.05
2023-08-13T13:07:15.966Z,6.53
2023-08-13T13:11:18.815Z,7.45
2023-08-13T13:15:21.619Z,10.88
2023-08-13T13:19:23.861Z,4.18
2023-08-13T13:23:25.889Z,4.28
2023-08-13T13:27:28.026Z,3.33
2023-08-13T13:31:30.159Z,6.13
2023-08-13T13:35:32.588Z,12.90
2023-08-13T13:39:34.911Z,4.18
2023-08-13T13:43:37.304Z,8.13
2023-08-13T13:47:39.397Z,3.50
2023-08-13T13:51:42.704Z,5.30
2023-08-13T13:55:44.743Z,7.45
2023-08-13T13:59:46.910Z,3.70
2023-08-13T14:03:49.118Z,4.65
2023-08-13T14:07:51.725Z,4.18
2023-08-13T14:11:53.737Z,7.85
2023-08-13T14:15:59.655Z,4.45
2023-08-13T14:20:01.794Z,6.90
2023-08-13T14:24:04.427Z,10.82
2023-08-13T14:28:07.443Z,7.70
2023-08-13T14:32:09.973Z,18.40
2023-08-13T14:36:12.054Z,19.23
2023-08-13T14:40:17.697Z,4.18
2023-08-13T14:44:20.044Z,9.05
2023-08-13T14:48:22.453Z,4.50
2023-08-13T14:52:24.580Z,7.45
2023-08-13T14:56:26.730Z,5.13
2023-08-13T15:00:28.917Z,5.43
2023-08-13T15:04:31.182Z,3.92
2023-08-13T15:08:33.008Z,3.33
2023-08-13T15:12:41.489Z,5.63
2023-08-13T15:16:44.892Z,4.90
2023-08-13T15:20:50.026Z,5.72
2023-08-13T15:24:52.380Z,5.30
2023-08-13T15:28:54.400Z,11.52
2023-08-13T15:32:56.382Z,4.10
2023-08-13T15:37:00.388Z,2.90
2023-08-13T15:41:02.416Z,8.00
2023-08-13T15:45:04.963Z,5.15
2023-08-13T15:49:07.128Z,2.90
2023-08-13T15:53:09.210Z,3.35
2023-08-13T15:57:10.940Z,5.78
2023-08-13T16:01:13.157Z,6.72
2023-08-13T16:05:15.933Z,2.60
2023-08-13T16:09:18.216Z,3.95
2023-08-13T16:13:20.222Z,3.22
2023-08-13T16:17:22.496Z,4.07
2023-08-13T16:21:24.679Z,3.20
2023-08-13T16:25:26.823Z,4.07
2023-08-13T16:29:28.853Z,4.43
2023-08-13T16:33:30.920Z,5.25
2023-08-13T16:37:33.039Z,6.97
2023-08-13T16:41:35.174Z,3.75
2023-08-13T16:45:37.336Z,5.57
2023-08-13T16:49:39.370Z,5.50
2023-08-13T16:53:41.921Z,4.28
2023-08-13T16:57:44.042Z,5.25
2023-08-13T17:01:46.094Z,6.80
2023-08-13T17:05:49.193Z,4.45
2023-08-13T17:09:52.481Z,3.58
2023-08-13T17:13:54.669Z,6.55
2023-08-13T17:17:56.955Z,3.47
2023-08-13T17:21:59.428Z,7.10
2023-08-13T17:26:01.403Z,6.38
2023-08-13T17:30:03.692Z,5.15
2023-08-13T17:34:05.999Z,7.10
2023-08-13T17:38:08.054Z,4.32
2023-08-13T17:42:10.157Z,7.38
2023-08-13T17:46:12.291Z,5.78
2023-08-13T17:50:14.608Z,3.53
2023-08-13T17:54:17.240Z,4.13
2023-08-13T17:58:19.259Z,6.13
2023-08-13T18:02:21.504Z,4.68
2023-08-13T18:06:23.706Z,4.50
2023-08-13T18:10:25.776Z,8.18
2023-08-13T18:14:27.746Z,4.60
2023-08-13T18:18:29.948Z,4.45
2023-08-13T18:22:31.979Z,4.47
2023-08-13T18:26:34.114Z,4.38
2023-08-13T18:30:35.853Z,6.13
2023-08-13T18:34:38.028Z,6.60
2023-08-13T18:38:40.060Z,6.75
2023-08-13T18:42:45.290Z,8.88
2023-08-13T18:46:48.402Z,4.72
2023-08-13T18:50:51.059Z,5.43
2023-08-13T18:54:53.197Z,4.82
2023-08-13T18:58:55.360Z,6.15
2023-08-13T19:02:57.537Z,7.38
2023-08-13T19:06:59.829Z,7.30
2023-08-13T19:11:01.926Z,8.60
2023-08-13T19:15:04.477Z,4.95
2023-08-13T19:19:06.941Z,5.97
2023-08-13T19:23:10.649Z,8.13
2023-08-13T19:27:12.683Z,8.90
2023-08-13T19:31:15.154Z,7.47
2023-08-13T19:35:17.351Z,6.93
2023-08-13T19:39:20.284Z,6.80
2023-08-13T19:43:22.406Z,8.27
2023-08-13T19:47:24.514Z,6.65
2023-08-13T19:51:26.552Z,6.85
2023-08-13T19:55:29.651Z,8.27
2023-08-13T19:59:31.867Z,8.90
2023-08-13T20:03:34.019Z,7.63
2023-08-13T20:07:36.688Z,6.70
2023-08-13T20:11:38.832Z,7.07
2023-08-13T20:15:40.883Z,7.60
2023-08-13T20:19:43.833Z,6.93
2023-08-13T20:23:47.573Z,8.38
2023-08-13T20:27:50.710Z,8.00
2023-08-13T20:31:52.837Z,9.70
2023-08-13T20:35:54.920Z,9.05
2023-08-13T20:39:57.924Z,10.23
2023-08-13T20:44:00.078Z,11.25
2023-08-13T20:48:03.887Z,12.57
2023-08-13T20:52:06.178Z,12.07
2023-08-13T20:56:08.927Z,11.02
2023-08-13T21:00:11.857Z,12.15
2023-08-13T21:04:13.927Z,13.18
2023-08-13T21:08:16.066Z,13.10
2023-08-13T21:12:18.375Z,12.35
2023-08-13T21:16:20.758Z,13.75
2023-08-13T21:20:22.845Z,14.45
2023-08-13T21:24:25.056Z,11.77
2023-08-13T21:28:27.218Z,9.82
2023-08-13T21:32:29.277Z,12.52
2023-08-13T21:36:31.438Z,13.43
2023-08-13T21:40:33.719Z,12.85
2023-08-13T21:44:35.876Z,14.35
2023-08-13T21:48:37.955Z,12.57
2023-08-13T21:52:40.065Z,11.98
2023-08-13T21:56:42.293Z,12.48
2023-08-13T22:00:44.462Z,11.13
2023-08-13T22:04:46.547Z,12.52
2023-08-13T22:08:48.653Z,10.95
2023-08-13T22:12:51.044Z,11.48
2023-08-13T22:16:53.196Z,9.80
2023-08-13T22:20:55.347Z,11.27
2023-08-13T22:24:57.402Z,11.73
2023-08-13T22:28:59.411Z,13.82
2023-08-13T22:33:01.526Z,9.00
2023-08-13T22:37:03.783Z,12.63
2023-08-13T22:41:05.786Z,15.55
2023-08-13T22:45:08.776Z,11.18
2023-08-13T22:49:14.570Z,10.82
2023-08-13T22:53:16.677Z,11.57
2023-08-13T22:57:18.888Z,10.27
2023-08-13T23:01:21.865Z,9.63
2023-08-13T23:05:23.885Z,10.63
2023-08-13T23:09:26.850Z,9.88
2023-08-13T23:13:28.965Z,9.85
2023-08-13T23:17:31.182Z,10.07
2023-08-13T23:21:33.273Z,8.88
2023-08-13T23:25:35.133Z,8.93
2023-08-13T23:29:37.425Z,10.60
2023-08-13T23:33:39.436Z,12.43
2023-08-13T23:37:41.520Z,11.25
2023-08-13T23:41:47.134Z,10.40
2023-08-13T23:45:49.207Z,9.88
2023-08-13T23:49:51.428Z,11.57
2023-08-13T23:53:53.470Z,12.93
2023-08-13T23:57:55.579Z,8.70
